createdAt,value
2019-01-23T00:01:36.379Z,76.47
2019-01-23T00:04:06.558Z,85.00
2019-01-23T00:06:36.436Z,74.10
2019-01-23T00:09:07.961Z,75.33
2019-01-23T00:11:38.981Z,67.93
2019-01-23T00:14:08.009Z,72.03
2019-01-23T00:16:37.027Z,67.07
2019-01-23T00:19:06.339Z,76.60
2019-01-23T00:21:36.124Z,75.83
2019-01-23T00:24:06.044Z,66.43
2019-01-23T00:26:36.164Z,69.23
2019-01-23T00:29:05.876Z,68.67
2019-01-23T00:31:37.547Z,60.03
2019-01-23T00:34:07.690Z,68.37
2019-01-23T00:36:37.891Z,70.07
2019-01-23T00:39:09.111Z,76.73
2019-01-23T00:41:40.655Z,70.73
2019-01-23T00:44:10.399Z,73.17
2019-01-23T00:46:43.273Z,68.33
2019-01-23T00:49:13.606Z,70.40
2019-01-23T00:51:45.561Z,74.40
2019-01-23T00:54:14.765Z,65.47
2019-01-23T00:56:48.612Z,60.10
2019-01-23T00:59:18.312Z,65.63
2019-01-23T01:01:49.786Z,61.73
2019-01-23T01:04:19.772Z,67.27
2019-01-23T01:06:54.167Z,63.97
2019-01-23T01:09:23.907Z,68.40
2019-01-23T01:11:56.665Z,66.57
2019-01-23T01:14:26.409Z,62.57
2019-01-23T01:17:01.025Z,57.97
2019-01-23T01:19:30.744Z,62.00
2019-01-23T01:22:03.585Z,62.40
2019-01-23T01:24:32.595Z,60.67
2019-01-23T01:27:06.336Z,57.60
2019-01-23T01:29:37.104Z,60.60
2019-01-23T01:32:08.387Z,62.73
2019-01-23T01:34:38.428Z,64.33
2019-01-23T01:37:18.632Z,54.70
2019-01-23T01:39:47.909Z,61.57
2019-01-23T01:42:17.609Z,64.40
2019-01-23T01:44:47.388Z,62.07
2019-01-23T01:47:19.067Z,65.00
2019-01-23T01:49:48.091Z,65.17
2019-01-23T01:52:22.621Z,70.17
2019-01-23T01:54:52.588Z,63.83
2019-01-23T01:57:23.956Z,63.43
2019-01-23T01:59:52.996Z,60.50
2019-01-23T02:02:27.309Z,70.17
2019-01-23T02:04:57.099Z,60.53
2019-01-23T02:07:27.688Z,56.87
2019-01-23T02:09:57.392Z,60.47
2019-01-23T02:12:31.441Z,63.73
2019-01-23T02:15:00.447Z,66.63
2019-01-23T02:17:36.119Z,63.00
2019-01-23T02:20:09.200Z,60.73
2019-01-23T02:22:39.023Z,54.60
2019-01-23T02:25:09.234Z,64.90
2019-01-23T02:27:39.462Z,59.77
2019-01-23T02:30:10.811Z,57.23
2019-01-23T02:32:42.368Z,60.43
2019-01-23T02:35:12.239Z,62.20
2019-01-23T02:37:44.752Z,65.53
2019-01-23T02:40:17.292Z,60.50
2019-01-23T02:42:48.871Z,65.73
2019-01-23T02:45:19.852Z,64.03
2019-01-23T02:47:52.436Z,59.10
2019-01-23T02:50:22.132Z,58.47
2019-01-23T02:52:56.125Z,66.93
2019-01-23T02:55:26.100Z,60.03
2019-01-23T02:57:58.619Z,58.87
2019-01-23T03:00:27.669Z,68.43
2019-01-23T03:03:01.590Z,57.03
2019-01-23T03:05:31.332Z,59.80
2019-01-23T03:08:03.799Z,67.67
2019-01-23T03:10:33.558Z,61.87
2019-01-23T03:13:06.878Z,65.43
2019-01-23T03:15:37.973Z,66.60
2019-01-23T03:18:12.475Z,70.30
2019-01-23T03:20:42.213Z,67.07
2019-01-23T03:23:13.523Z,59.23
2019-01-23T03:25:43.213Z,56.70
2019-01-23T03:28:17.137Z,61.53
2019-01-23T03:30:47.087Z,63.23
2019-01-23T03:33:19.285Z,58.13
2019-01-23T03:35:48.995Z,69.40
2019-01-23T03:38:21.577Z,64.50
2019-01-23T03:40:51.240Z,75.83
2019-01-23T03:43:25.308Z,68.43
2019-01-23T03:45:55.591Z,65.77
2019-01-23T03:48:28.451Z,67.50
2019-01-23T03:50:57.483Z,73.40
2019-01-23T03:53:29.998Z,69.57
2019-01-23T03:55:59.708Z,70.70
2019-01-23T03:58:32.637Z,62.80
2019-01-23T04:01:02.535Z,63.37
2019-01-23T04:03:35.952Z,69.03
2019-01-23T04:06:05.947Z,76.53
2019-01-23T04:08:38.667Z,72.53
2019-01-23T04:11:09.597Z,67.03
2019-01-23T04:13:40.667Z,70.40
2019-01-23T04:16:09.710Z,70.93
2019-01-23T04:18:42.263Z,72.77
2019-01-23T04:21:11.971Z,77.87
2019-01-23T04:23:44.907Z,73.20
2019-01-23T04:26:14.183Z,75.73
2019-01-23T04:28:48.456Z,64.03
2019-01-23T04:31:18.201Z,68.23
2019-01-23T04:33:53.045Z,67.80
2019-01-23T04:36:22.749Z,79.27
2019-01-23T04:38:56.087Z,71.50
2019-01-23T04:41:26.050Z,73.40
2019-01-23T04:43:59.261Z,67.40
2019-01-23T04:46:28.319Z,72.77
2019-01-23T04:49:01.204Z,68.60
2019-01-23T04:51:49.230Z,72.17
2019-01-23T04:54:19.936Z,72.53
2019-01-23T04:56:49.620Z,72.10
2019-01-23T04:59:19.398Z,64.80
2019-01-23T05:01:48.417Z,77.73
2019-01-23T05:04:18.240Z,67.10
2019-01-23T05:06:47.755Z,79.50
2019-01-23T05:09:17.538Z,74.37
2019-01-23T05:11:48.120Z,79.20
2019-01-23T05:14:18.143Z,73.53
2019-01-23T05:16:47.177Z,75.07
2019-01-23T05:19:20.121Z,84.67
2019-01-23T05:21:49.855Z,83.20
2019-01-23T05:24:23.133Z,77.53
2019-01-23T05:26:53.086Z,71.47
2019-01-23T05:29:25.449Z,77.90
2019-01-23T05:31:54.490Z,79.37
2019-01-23T05:34:29.587Z,81.57
2019-01-23T05:36:59.407Z,83.60
2019-01-23T05:42:08.852Z,82.87
2019-01-23T05:44:40.754Z,94.70
2019-01-23T05:47:11.128Z,102.33
2019-01-23T05:49:40.897Z,112.50
2019-01-23T05:52:10.599Z,82.10
2019-01-23T05:54:40.604Z,86.20
2019-01-23T05:57:10.338Z,89.77
2019-01-23T05:59:40.468Z,87.57
2019-01-23T06:02:10.625Z,80.13
2019-01-23T06:04:43.952Z,73.87
2019-01-23T06:07:13.710Z,65.67
2019-01-23T06:09:48.540Z,71.43
2019-01-23T06:12:18.575Z,67.13
2019-01-23T06:14:50.751Z,71.10
2019-01-23T06:17:19.785Z,68.30
2019-01-23T06:19:54.252Z,69.70
2019-01-23T06:22:31.727Z,75.73
2019-01-23T06:25:00.949Z,66.73
2019-01-23T06:27:30.176Z,75.03
2019-01-23T06:30:00.571Z,69.13
2019-01-23T06:32:29.615Z,67.37
2019-01-23T06:35:06.167Z,76.13
2019-01-23T06:37:36.747Z,65.83
2019-01-23T06:40:10.879Z,73.77
2019-01-23T06:42:40.624Z,66.47
2019-01-23T06:45:12.431Z,71.63
2019-01-23T06:47:42.236Z,66.47
2019-01-23T06:50:18.833Z,71.50
2019-01-23T06:53:18.829Z,69.07
2019-01-23T06:55:48.218Z,91.00
2019-01-23T06:58:26.015Z,61.80
2019-01-23T07:00:55.974Z,68.43
2019-01-23T07:03:25.993Z,65.27
2019-01-23T07:05:56.072Z,70.33
2019-01-23T07:08:25.846Z,64.80
2019-01-23T07:10:55.556Z,60.13
2019-01-23T07:13:26.419Z,73.57
2019-01-23T07:18:31.292Z,78.80
2019-01-23T07:21:00.494Z,78.27
2019-01-23T07:23:30.296Z,77.90
2019-01-23T07:26:03.080Z,74.90
2019-01-23T07:28:33.518Z,76.10
2019-01-23T07:31:03.201Z,75.63
2019-01-23T07:33:37.686Z,77.07
2019-01-23T07:36:07.378Z,68.40
2019-01-23T07:38:37.101Z,77.40
2019-01-23T07:41:07.121Z,75.10
2019-01-23T07:43:41.584Z,73.10
2019-01-23T07:46:11.354Z,76.30
2019-01-23T07:48:42.186Z,73.63
2019-01-23T07:51:11.896Z,69.80
2019-01-23T07:53:43.630Z,67.10
2019-01-23T07:56:13.358Z,68.57
2019-01-23T07:58:47.673Z,69.17
2019-01-23T08:01:17.646Z,70.67
2019-01-23T08:03:50.080Z,68.37
2019-01-23T08:06:19.835Z,71.63
2019-01-23T08:08:55.322Z,70.07
2019-01-23T08:11:25.086Z,65.83
2019-01-23T08:13:55.306Z,65.50
2019-01-23T08:16:26.063Z,66.03
2019-01-23T08:19:01.840Z,69.57
2019-01-23T08:21:31.819Z,73.93
2019-01-23T08:24:02.180Z,70.73
2019-01-23T08:26:31.928Z,77.43
2019-01-23T08:29:06.445Z,74.83
2019-01-23T08:31:36.336Z,65.53
2019-01-23T08:34:10.635Z,76.03
2019-01-23T08:36:40.382Z,71.77
2019-01-23T08:39:13.459Z,69.23
2019-01-23T08:41:43.466Z,72.27
2019-01-23T08:44:17.503Z,66.17
2019-01-23T08:46:47.225Z,67.37
2019-01-23T08:49:20.018Z,71.73
2019-01-23T08:51:50.055Z,70.57
2019-01-23T08:54:22.621Z,64.47
2019-01-23T08:56:52.480Z,71.47
2019-01-23T08:59:24.138Z,71.00
2019-01-23T09:01:53.840Z,73.43
2019-01-23T09:04:26.365Z,70.17
2019-01-23T09:06:55.695Z,60.43
2019-01-23T09:09:28.333Z,76.77
2019-01-23T09:11:58.078Z,72.87
2019-01-23T09:14:31.940Z,70.80
2019-01-23T09:17:01.690Z,65.67
2019-01-23T09:19:34.723Z,64.40
2019-01-23T09:22:04.476Z,59.07
2019-01-23T09:24:38.369Z,74.10
2019-01-23T09:27:08.149Z,57.67
2019-01-23T09:29:40.664Z,67.27
2019-01-23T09:32:48.548Z,59.00
2019-01-23T09:35:45.472Z,61.70
2019-01-23T09:39:06.268Z,62.07
2019-01-23T09:41:55.641Z,71.27
2019-01-23T09:44:46.934Z,61.83
2019-01-23T09:47:34.165Z,58.87
2019-01-23T09:50:49.573Z,67.53
2019-01-23T09:53:30.217Z,65.70
2019-01-23T09:56:00.546Z,63.97
2019-01-23T09:58:30.433Z,62.20
2019-01-23T10:01:00.252Z,67.43
2019-01-23T10:03:29.302Z,67.57
2019-01-23T10:06:00.964Z,66.20
2019-01-23T10:08:30.983Z,64.07
2019-01-23T10:11:03.976Z,61.07
2019-01-23T10:13:33.702Z,50.93
2019-01-23T10:16:10.584Z,54.67
2019-01-23T10:18:40.288Z,53.37
2019-01-23T10:21:11.002Z,58.17
2019-01-23T10:23:41.042Z,54.37
2019-01-23T10:26:14.253Z,56.10
2019-01-23T10:28:43.957Z,59.90
2019-01-23T10:31:17.047Z,57.93
2019-01-23T10:33:46.786Z,59.30
2019-01-23T10:36:19.120Z,59.63
2019-01-23T10:38:48.468Z,52.67
2019-01-23T10:41:21.801Z,65.37
2019-01-23T10:43:51.670Z,61.37
2019-01-23T10:46:33.775Z,56.20
2019-01-23T10:49:03.615Z,54.33
2019-01-23T10:51:33.436Z,58.33
2019-01-23T10:54:05.935Z,60.70
2019-01-23T10:56:37.614Z,61.37
2019-01-23T10:59:07.335Z,48.87
2019-01-23T11:01:37.660Z,63.17
2019-01-23T11:04:07.610Z,54.87
2019-01-23T11:06:37.657Z,66.53
2019-01-23T11:09:08.019Z,50.43
2019-01-23T11:11:40.822Z,59.03
2019-01-23T11:14:10.570Z,57.17
2019-01-23T11:16:40.299Z,61.33
2019-01-23T11:19:10.052Z,52.40
2019-01-23T11:21:43.601Z,66.03
2019-01-23T11:24:17.478Z,55.77
2019-01-23T11:26:47.296Z,65.20
2019-01-23T11:29:17.392Z,65.80
2019-01-23T11:31:47.298Z,54.47
2019-01-23T11:34:16.313Z,51.33
2019-01-23T11:36:51.047Z,50.17
2019-01-23T11:39:20.743Z,57.17
2019-01-23T11:41:53.623Z,61.17
2019-01-23T11:44:23.381Z,56.80
2019-01-23T11:46:57.617Z,55.90
2019-01-23T11:49:27.038Z,57.00
2019-01-23T11:52:01.198Z,60.77
2019-01-23T11:54:31.237Z,61.93
2019-01-23T11:57:04.033Z,58.97
2019-01-23T11:59:33.738Z,57.93
2019-01-23T12:02:07.471Z,57.30
2019-01-23T12:04:37.264Z,53.77
2019-01-23T12:07:10.877Z,53.70
2019-01-23T12:09:41.047Z,54.87
2019-01-23T12:12:13.884Z,60.27
2019-01-23T12:14:44.720Z,56.70
2019-01-23T12:17:16.357Z,58.73
2019-01-23T12:19:46.076Z,60.20
2019-01-23T12:22:18.619Z,60.17
2019-01-23T12:24:48.418Z,56.43
2019-01-23T12:27:21.549Z,50.90
2019-01-23T12:29:52.581Z,55.00
2019-01-23T12:32:23.265Z,54.23
2019-01-23T12:34:53.007Z,47.07
2019-01-23T12:37:26.216Z,45.53
2019-01-23T12:39:55.288Z,46.80
2019-01-23T12:42:29.586Z,49.37
2019-01-23T12:44:59.471Z,52.37
2019-01-23T12:47:32.287Z,53.60
2019-01-23T12:50:02.080Z,46.00
2019-01-23T12:52:36.260Z,46.83
2019-01-23T12:55:06.846Z,44.90
2019-01-23T12:57:37.458Z,51.77
2019-01-23T13:00:10.770Z,50.37
2019-01-23T13:02:40.523Z,47.27
2019-01-23T13:05:11.540Z,50.93
2019-01-23T13:07:42.059Z,48.13
2019-01-23T13:10:12.907Z,54.47
2019-01-23T13:12:43.783Z,49.50
2019-01-23T13:15:15.765Z,52.23
2019-01-23T13:17:47.443Z,52.83
2019-01-23T13:20:16.794Z,54.50
2019-01-23T13:22:51.488Z,46.07
2019-01-23T13:25:23.396Z,50.63
2019-01-23T13:27:53.057Z,52.13
2019-01-23T13:30:24.086Z,44.67
2019-01-23T13:32:56.278Z,45.73
2019-01-23T13:35:29.556Z,50.40
2019-01-23T13:37:59.473Z,49.37
2019-01-23T13:40:32.461Z,53.73
2019-01-23T13:43:02.628Z,50.73
2019-01-23T13:45:32.413Z,57.60
2019-01-23T13:48:05.663Z,51.20
2019-01-23T13:50:34.725Z,52.07
2019-01-23T13:53:12.009Z,48.57
2019-01-23T13:55:42.054Z,53.00
2019-01-23T13:58:15.009Z,56.73
2019-01-23T14:00:44.991Z,64.30
2019-01-23T14:05:43.613Z,59.37
2019-01-23T14:08:19.949Z,53.97
2019-01-23T14:10:49.525Z,56.57
2019-01-23T14:13:20.861Z,53.53
2019-01-23T14:15:50.636Z,49.73
2019-01-23T14:18:22.947Z,49.37
2019-01-23T14:20:52.712Z,54.37
2019-01-23T14:23:24.777Z,59.63
2019-01-23T14:25:54.545Z,55.23
2019-01-23T14:28:28.151Z,51.47
2019-01-23T14:31:00.440Z,82.47
2019-01-23T14:33:30.205Z,62.17
2019-01-23T14:35:59.916Z,66.27
2019-01-23T14:38:32.932Z,63.30
2019-01-23T14:41:02.156Z,59.77
2019-01-23T14:43:36.979Z,60.67
2019-01-23T14:46:24.141Z,62.47
2019-01-23T14:48:53.925Z,60.33
2019-01-23T14:51:24.038Z,64.00
2019-01-23T14:53:53.924Z,57.23
2019-01-23T14:56:25.071Z,55.90
2019-01-23T14:58:55.213Z,55.10
2019-01-23T15:01:24.989Z,58.43
2019-01-23T15:03:54.897Z,63.83
2019-01-23T15:06:24.568Z,60.90
2019-01-23T15:08:54.331Z,62.73
2019-01-23T15:11:24.079Z,54.47
2019-01-23T15:13:54.098Z,54.80
2019-01-23T15:16:23.852Z,52.77
2019-01-23T15:18:54.865Z,55.73
2019-01-23T15:21:24.879Z,59.67
2019-01-23T15:23:55.425Z,59.73
2019-01-23T15:26:24.675Z,52.47
2019-01-23T15:29:02.944Z,57.93
2019-01-23T15:31:32.056Z,57.53
2019-01-23T15:34:02.599Z,58.03
2019-01-23T15:36:32.594Z,54.87
2019-01-23T15:39:07.502Z,56.73
2019-01-23T15:41:39.185Z,56.13
2019-01-23T15:44:09.930Z,63.93
2019-01-23T15:46:39.830Z,56.17
2019-01-23T15:49:12.323Z,55.87
2019-01-23T15:51:41.620Z,87.27
2019-01-23T15:54:16.167Z,68.03
2019-01-23T15:56:50.967Z,73.67
2019-01-23T15:59:24.640Z,57.63
2019-01-23T16:01:53.873Z,66.17
2019-01-23T16:04:23.676Z,59.47
2019-01-23T16:06:53.817Z,57.27
2019-01-23T16:09:23.929Z,71.93
2019-01-23T16:11:53.644Z,68.00
2019-01-23T16:14:24.239Z,62.53
2019-01-23T16:16:53.312Z,61.17
2019-01-23T16:19:29.112Z,56.40
2019-01-23T16:21:59.261Z,58.10
2019-01-23T16:24:29.658Z,58.10
2019-01-23T16:26:58.756Z,56.20
2019-01-23T16:29:34.848Z,50.30
2019-01-23T16:32:05.072Z,46.10
2019-01-23T16:34:35.240Z,60.47
2019-01-23T16:37:06.189Z,60.27
2019-01-23T16:39:39.974Z,62.63
2019-01-23T16:42:09.839Z,56.90
2019-01-23T16:44:41.882Z,60.97
2019-01-23T16:47:12.973Z,62.60
2019-01-23T16:49:44.703Z,71.97
2019-01-23T16:52:13.812Z,57.70
2019-01-23T16:54:46.666Z,52.57
2019-01-23T16:57:16.391Z,54.07
2019-01-23T16:59:49.301Z,61.67
2019-01-23T17:02:18.551Z,101.63
2019-01-23T17:04:51.032Z,64.63
2019-01-23T17:07:21.292Z,54.20
2019-01-23T17:09:55.859Z,59.60
2019-01-23T17:12:26.828Z,54.63
2019-01-23T17:14:57.857Z,63.47
2019-01-23T17:17:26.912Z,58.33
2019-01-23T17:20:05.282Z,58.17
2019-01-23T17:22:35.081Z,62.47
2019-01-23T17:25:07.871Z,59.97
2019-01-23T17:27:39.179Z,56.47
2019-01-23T17:30:09.842Z,66.47
2019-01-23T17:32:45.621Z,65.37
2019-01-23T17:35:14.776Z,60.87
2019-01-23T17:37:46.082Z,58.43
2019-01-23T17:40:16.513Z,59.77
2019-01-23T17:42:45.864Z,56.93
2019-01-23T17:45:17.394Z,60.47
2019-01-23T17:47:47.230Z,57.27
2019-01-23T17:50:18.894Z,59.20
2019-01-23T17:52:49.198Z,65.40
2019-01-23T17:55:30.649Z,55.77
2019-01-23T17:58:00.903Z,57.00
2019-01-23T18:00:34.778Z,62.10
2019-01-23T18:03:04.969Z,68.80
2019-01-23T18:05:38.276Z,55.77
2019-01-23T18:08:08.125Z,55.87
2019-01-23T18:10:39.499Z,56.07
2019-01-23T18:13:08.922Z,55.33
2019-01-23T18:15:38.908Z,62.57
2019-01-23T18:18:08.255Z,63.37
2019-01-23T18:20:38.483Z,60.33
2019-01-23T18:23:07.554Z,57.10
2019-01-23T18:25:37.779Z,60.13
2019-01-23T18:28:07.373Z,63.90
2019-01-23T18:30:42.385Z,63.07
2019-01-23T18:33:13.815Z,60.30
2019-01-23T18:36:00.601Z,73.60
2019-01-23T18:38:46.435Z,65.50
2019-01-23T18:41:47.247Z,70.40
2019-01-23T18:44:33.187Z,69.03
2019-01-23T18:47:49.482Z,65.80
2019-01-23T18:50:36.293Z,69.73
2019-01-23T18:53:06.406Z,74.03
2019-01-23T18:55:36.046Z,75.73
2019-01-23T18:58:06.155Z,66.40
2019-01-23T19:00:37.997Z,56.33
2019-01-23T19:03:08.194Z,62.97
2019-01-23T19:05:38.477Z,75.33
2019-01-23T19:08:09.504Z,58.13
2019-01-23T19:10:40.337Z,64.10
2019-01-23T19:13:09.494Z,60.40
2019-01-23T19:15:41.602Z,66.67
2019-01-23T19:18:12.047Z,61.90
2019-01-23T19:20:41.886Z,59.40
2019-01-23T19:23:14.650Z,61.40
2019-01-23T19:25:44.654Z,64.70
2019-01-23T19:28:16.054Z,61.17
2019-01-23T19:30:45.809Z,66.20
2019-01-23T19:33:19.069Z,66.70
2019-01-23T19:35:48.841Z,61.40
2019-01-23T19:38:21.759Z,62.70
2019-01-23T19:40:53.818Z,65.33
2019-01-23T19:43:23.213Z,65.70
2019-01-23T19:45:52.973Z,65.67
2019-01-23T19:48:26.378Z,70.10
2019-01-23T19:50:59.260Z,66.30
2019-01-23T19:53:29.035Z,63.87
2019-01-23T19:55:59.058Z,59.83
2019-01-23T19:58:31.259Z,61.50
2019-01-23T20:01:00.393Z,69.37
2019-01-23T20:03:33.336Z,62.50
2019-01-23T20:06:03.123Z,66.27
2019-01-23T20:08:37.238Z,62.90
2019-01-23T20:11:06.953Z,62.67
2019-01-23T20:13:38.679Z,67.83
2019-01-23T20:16:08.774Z,58.43
2019-01-23T20:18:43.593Z,64.30
2019-01-23T20:21:13.618Z,56.97
2019-01-23T20:23:49.786Z,70.33
2019-01-23T20:26:19.634Z,66.23
2019-01-23T20:28:48.999Z,62.00
2019-01-23T20:31:19.940Z,70.97
2019-01-23T20:33:50.697Z,60.93
2019-01-23T20:36:20.745Z,64.13
2019-01-23T20:38:51.715Z,65.13
2019-01-23T20:41:20.888Z,68.47
2019-01-23T20:43:54.849Z,69.67
2019-01-23T20:46:26.922Z,63.60
2019-01-23T20:48:58.917Z,68.67
2019-01-23T20:51:28.957Z,69.57
2019-01-23T20:54:01.782Z,68.93
2019-01-23T20:56:30.978Z,70.63
2019-01-23T20:59:04.799Z,70.27
2019-01-23T21:01:34.610Z,72.57
2019-01-23T21:06:37.633Z,72.43
2019-01-23T21:09:15.456Z,63.87
2019-01-23T21:11:46.662Z,74.03
2019-01-23T21:14:16.464Z,73.30
2019-01-23T21:16:46.227Z,80.27
2019-01-23T21:19:19.011Z,88.80
2019-01-23T21:21:48.856Z,85.10
2019-01-23T21:24:22.206Z,77.70
2019-01-23T21:26:52.366Z,83.83
2019-01-23T21:29:22.133Z,96.77
2019-01-23T21:31:52.046Z,86.63
2019-01-23T21:34:24.444Z,81.00
2019-01-23T21:36:53.538Z,100.63
2019-01-23T21:39:28.160Z,75.97
2019-01-23T21:41:58.348Z,85.40
2019-01-23T21:44:29.483Z,85.23
2019-01-23T21:47:00.361Z,80.63
2019-01-23T21:49:31.945Z,79.47
2019-01-23T21:52:01.683Z,81.77
2019-01-23T21:54:33.720Z,75.07
2019-01-23T21:57:03.735Z,75.70
2019-01-23T21:59:38.163Z,86.97
2019-01-23T22:02:07.566Z,76.70
2019-01-23T22:04:39.491Z,79.83
2019-01-23T22:07:08.556Z,87.67
2019-01-23T22:09:42.490Z,82.20
2019-01-23T22:12:12.531Z,89.23
2019-01-23T22:14:46.036Z,83.50
2019-01-23T22:17:15.832Z,85.67
2019-01-23T22:19:48.371Z,88.77
2019-01-23T22:22:18.099Z,96.70
2019-01-23T22:24:51.990Z,80.90
2019-01-23T22:27:21.045Z,84.67
2019-01-23T22:29:52.334Z,81.90
2019-01-23T22:32:22.449Z,79.10
2019-01-23T22:34:58.114Z,80.43
2019-01-23T22:37:28.121Z,85.60
2019-01-23T22:39:59.524Z,86.37
2019-01-23T22:42:29.326Z,81.37
2019-01-23T22:45:06.918Z,78.43
2019-01-23T22:47:37.674Z,85.70
2019-01-23T22:50:10.789Z,63.83
2019-01-23T22:52:40.512Z,88.83
2019-01-23T22:55:10.785Z,72.50
2019-01-23T22:57:40.809Z,76.83
2019-01-23T23:00:21.980Z,74.57
2019-01-23T23:02:52.140Z,85.63
2019-01-23T23:05:21.857Z,71.30
2019-01-23T23:07:51.574Z,74.53
2019-01-23T23:10:23.168Z,73.23
2019-01-23T23:12:52.977Z,70.20
2019-01-23T23:15:22.808Z,71.70
2019-01-23T23:17:52.832Z,78.27
2019-01-23T23:20:22.808Z,77.57
2019-01-23T23:22:52.517Z,72.87
2019-01-23T23:25:25.958Z,80.13
2019-01-23T23:27:55.696Z,70.20
2019-01-23T23:30:28.676Z,73.80
2019-01-23T23:32:58.066Z,75.30
2019-01-23T23:35:30.936Z,75.13
2019-01-23T23:38:00.696Z,79.93
2019-01-23T23:40:33.828Z,76.70
2019-01-23T23:43:02.870Z,80.17
2019-01-23T23:45:37.310Z,68.40
2019-01-23T23:48:07.513Z,71.13
2019-01-23T23:50:39.994Z,74.77
2019-01-23T23:53:10.613Z,71.67
2019-01-23T23:55:40.605Z,87.47
2019-01-23T23:58:09.616Z,76.13
